createdAt,value
2022-09-06T00:01:17.395Z,15.37
2022-09-06T00:03:46.411Z,15.34
2022-09-06T00:06:18.423Z,15.30
2022-09-06T00:08:48.243Z,15.27
2022-09-06T00:11:17.946Z,15.25
2022-09-06T00:13:47.349Z,15.24
2022-09-06T00:16:18.826Z,15.25
2022-09-06T00:18:47.530Z,15.25
2022-09-06T00:21:28.772Z,15.25
2022-09-06T00:23:57.002Z,15.23
2022-09-06T00:26:25.556Z,15.21
2022-09-06T00:28:53.704Z,15.17
2022-09-06T00:31:24.908Z,15.14
2022-09-06T00:33:54.250Z,15.12
2022-09-06T00:36:23.134Z,15.11
2022-09-06T00:38:51.412Z,15.12
2022-09-06T00:41:19.691Z,15.13
2022-09-06T00:43:47.920Z,15.14
2022-09-06T00:46:21.178Z,15.13
2022-09-06T00:48:54.960Z,15.11
2022-09-06T00:51:27.641Z,15.09
2022-09-06T00:53:56.143Z,15.07
2022-09-06T00:56:25.523Z,15.05
2022-09-06T00:58:54.823Z,15.03
2022-09-06T01:01:23.335Z,15.01
2022-09-06T01:03:51.991Z,14.98
2022-09-06T01:06:20.474Z,14.96
2022-09-06T01:09:20.696Z,14.96
2022-09-06T01:12:04.028Z,14.94
2022-09-06T01:14:50.940Z,14.94
2022-09-06T01:17:30.992Z,14.95
2022-09-06T01:20:01.815Z,14.94
2022-09-06T01:23:12.170Z,14.93
2022-09-06T01:25:52.012Z,14.93
2022-09-06T01:28:30.608Z,14.90
2022-09-06T01:31:20.800Z,14.87
2022-09-06T01:34:00.593Z,14.85
2022-09-06T01:36:45.766Z,14.82
2022-09-06T01:39:33.799Z,14.77
2022-09-06T01:42:08.435Z,14.71
2022-09-06T01:44:38.753Z,14.65
2022-09-06T01:47:35.702Z,14.58
2022-09-06T01:50:28.451Z,14.50
2022-09-06T01:53:09.630Z,14.44
2022-09-06T01:56:04.940Z,14.38
2022-09-06T01:59:17.454Z,14.31
2022-09-06T02:01:52.876Z,14.25
2022-09-06T02:04:33.055Z,14.22
2022-09-06T02:07:09.214Z,14.18
2022-09-06T02:09:43.840Z,14.14
2022-09-06T02:12:16.927Z,14.10
2022-09-06T02:14:51.247Z,14.07
2022-09-06T02:17:25.156Z,14.04
2022-09-06T02:19:59.881Z,14.00
2022-09-06T02:22:33.277Z,13.97
2022-09-06T02:25:04.320Z,13.94
2022-09-06T02:27:33.103Z,13.90
2022-09-06T02:30:03.263Z,13.86
2022-09-06T02:32:35.908Z,13.80
2022-09-06T02:35:09.095Z,13.77
2022-09-06T02:37:37.147Z,13.71
2022-09-06T02:40:06.164Z,13.68
2022-09-06T02:42:34.540Z,13.65
2022-09-06T02:45:02.922Z,13.62
2022-09-06T02:47:31.501Z,13.60
2022-09-06T02:49:59.676Z,13.57
2022-09-06T02:52:27.850Z,13.54
2022-09-06T02:54:56.024Z,13.52
2022-09-06T02:57:24.198Z,13.49
2022-09-06T02:59:52.371Z,13.46
2022-09-06T03:02:20.553Z,13.41
2022-09-06T03:04:49.026Z,13.37
2022-09-06T03:07:17.209Z,13.33
2022-09-06T03:09:45.476Z,13.30
2022-09-06T03:12:13.649Z,13.29
2022-09-06T03:14:41.824Z,13.28
2022-09-06T03:17:09.999Z,13.26
2022-09-06T03:19:38.171Z,13.23
2022-09-06T03:22:06.345Z,13.20
2022-09-06T03:24:34.417Z,13.17
2022-09-06T03:27:02.591Z,13.15
2022-09-06T03:29:30.764Z,13.12
2022-09-06T03:31:58.939Z,13.11
2022-09-06T03:34:27.215Z,13.09
2022-09-06T03:36:55.388Z,13.06
2022-09-06T03:39:23.786Z,13.04
2022-09-06T03:41:52.155Z,13.03
2022-09-06T03:44:20.171Z,12.97
2022-09-06T03:46:48.270Z,12.92
2022-09-06T03:49:16.287Z,12.86
2022-09-06T03:51:44.358Z,12.82
2022-09-06T03:54:12.551Z,12.78
2022-09-06T03:56:40.554Z,12.74
2022-09-06T03:59:08.616Z,12.70
2022-09-06T04:01:36.730Z,12.69
2022-09-06T04:04:04.891Z,12.68
2022-09-06T04:06:33.065Z,12.67
2022-09-06T04:09:01.238Z,12.64
2022-09-06T04:11:29.413Z,12.61
2022-09-06T04:13:57.586Z,12.59
2022-09-06T04:16:25.789Z,12.58
2022-09-06T04:18:54.855Z,12.58
2022-09-06T04:21:23.340Z,12.56
2022-09-06T04:23:51.514Z,12.53
2022-09-06T04:26:19.992Z,12.52
2022-09-06T04:28:48.172Z,12.50
2022-09-06T04:31:16.282Z,12.48
2022-09-06T04:33:44.617Z,12.47
2022-09-06T04:36:13.711Z,12.46
2022-09-06T04:38:43.935Z,12.47
2022-09-06T04:41:15.997Z,12.46
2022-09-06T04:43:44.171Z,12.46
2022-09-06T04:46:25.362Z,12.47
2022-09-06T04:48:55.061Z,12.47
2022-09-06T04:51:24.438Z,12.47
2022-09-06T04:53:53.046Z,12.48
2022-09-06T04:56:24.395Z,12.49
2022-09-06T04:58:54.621Z,12.49
2022-09-06T05:01:23.452Z,12.50
2022-09-06T05:03:56.175Z,12.51
2022-09-06T05:06:25.903Z,12.53
2022-09-06T05:08:54.173Z,12.55
2022-09-06T05:11:22.289Z,12.59
2022-09-06T05:13:50.647Z,12.63
2022-09-06T05:16:18.994Z,12.67
2022-09-06T05:18:47.294Z,12.71
2022-09-06T05:21:16.323Z,12.74
2022-09-06T05:23:44.752Z,12.77
2022-09-06T05:26:12.927Z,12.79
2022-09-06T05:28:41.098Z,12.83
2022-09-06T05:31:27.969Z,12.86
2022-09-06T05:33:57.825Z,12.91
2022-09-06T05:36:27.535Z,12.93
2022-09-06T05:38:56.937Z,12.93
2022-09-06T05:41:26.032Z,12.95
2022-09-06T05:43:54.515Z,12.99
2022-09-06T05:46:22.789Z,13.03
2022-09-06T05:48:55.980Z,13.09
2022-09-06T05:51:24.565Z,13.14
2022-09-06T05:53:53.148Z,13.20
2022-09-06T05:56:22.553Z,13.25
2022-09-06T05:58:51.062Z,13.29
2022-09-06T06:01:20.855Z,13.33
2022-09-06T06:03:57.547Z,13.37
2022-09-06T06:06:27.642Z,13.43
2022-09-06T06:08:56.581Z,13.48
2022-09-06T06:11:26.175Z,13.52
2022-09-06T06:13:55.129Z,13.56
2022-09-06T06:16:23.968Z,13.61
2022-09-06T06:18:52.938Z,13.66
2022-09-06T06:21:22.311Z,13.70
2022-09-06T06:23:53.865Z,13.74
2022-09-06T06:26:23.219Z,13.78
2022-09-06T06:28:52.153Z,13.82
2022-09-06T06:31:22.693Z,13.86
2022-09-06T06:33:51.371Z,13.90
2022-09-06T06:36:25.093Z,13.95
2022-09-06T06:38:55.533Z,14.01
2022-09-06T06:41:26.340Z,14.06
2022-09-06T06:43:59.632Z,14.12
2022-09-06T06:46:31.492Z,14.18
2022-09-06T06:49:00.220Z,14.25
2022-09-06T06:51:30.925Z,14.31
2022-09-06T06:53:59.423Z,14.38
2022-09-06T06:56:30.536Z,14.43
2022-09-06T06:59:01.578Z,14.50
2022-09-06T07:01:32.044Z,14.57
2022-09-06T07:04:00.432Z,14.63
2022-09-06T07:09:18.961Z,14.76
2022-09-06T07:11:49.088Z,14.83
2022-09-06T07:14:18.271Z,14.89
2022-09-06T07:16:46.813Z,14.95
2022-09-06T07:22:05.717Z,15.08
2022-09-06T07:24:34.109Z,15.14
2022-09-06T07:29:50.422Z,15.28
2022-09-06T07:32:18.801Z,15.34
2022-09-06T07:34:47.148Z,15.40
2022-09-06T07:37:15.557Z,15.46
2022-09-06T07:39:43.919Z,15.52
2022-09-06T07:42:12.110Z,15.59
2022-09-06T07:44:40.592Z,15.67
2022-09-06T07:55:34.113Z,16.02
2022-09-06T07:58:02.185Z,16.10
2022-09-06T08:00:30.361Z,16.18
2022-09-06T08:02:58.485Z,16.26
2022-09-06T08:11:03.912Z,16.55
2022-09-06T08:13:32.052Z,16.64
2022-09-06T08:16:03.546Z,16.74
2022-09-06T08:18:32.198Z,16.84
2022-09-06T08:21:14.632Z,16.92
2022-09-06T08:23:48.586Z,17.02
2022-09-06T08:26:18.658Z,17.12
2022-09-06T08:28:47.568Z,17.20
2022-09-06T08:31:17.839Z,17.29
2022-09-06T08:33:47.988Z,17.38
2022-09-06T08:36:16.385Z,17.48
2022-09-06T08:38:45.907Z,17.57
2022-09-06T08:41:14.126Z,17.66
2022-09-06T08:47:13.476Z,17.86
2022-09-06T08:49:55.579Z,17.94
2022-09-06T08:52:35.775Z,18.03
2022-09-06T08:55:30.471Z,18.13
2022-09-06T08:58:20.460Z,18.25
2022-09-06T09:00:53.270Z,18.35
2022-09-06T09:03:25.464Z,18.44
2022-09-06T09:05:54.587Z,18.53
2022-09-06T09:08:32.937Z,18.61
2022-09-06T09:11:10.478Z,18.70
2022-09-06T09:14:23.592Z,18.80
2022-09-06T09:16:53.252Z,18.90
2022-09-06T09:19:21.438Z,18.99
2022-09-06T09:21:49.650Z,19.08
2022-09-06T09:24:17.828Z,19.17
2022-09-06T09:26:51.735Z,19.27
2022-09-06T09:29:25.382Z,19.38
2022-09-06T09:31:56.566Z,19.49
2022-09-06T09:34:36.731Z,19.61
2022-09-06T09:40:03.706Z,19.87
2022-09-06T09:42:36.286Z,20.00
2022-09-06T09:45:22.812Z,20.14
2022-09-06T09:47:51.269Z,20.30
2022-09-06T09:50:26.211Z,20.44
2022-09-06T09:52:55.112Z,20.58
2022-09-06T09:55:28.527Z,20.71
2022-09-06T09:57:57.083Z,20.84
2022-09-06T10:00:43.272Z,20.95
2022-09-06T10:03:16.808Z,21.06
2022-09-06T10:06:02.162Z,21.18
2022-09-06T10:08:33.649Z,21.34
2022-09-06T10:11:01.963Z,21.46
2022-09-06T10:13:31.696Z,21.58
2022-09-06T10:16:00.935Z,21.70
2022-09-06T10:18:34.984Z,21.80
2022-09-06T10:21:11.043Z,21.88
2022-09-06T10:26:39.237Z,22.03
2022-09-06T10:29:11.306Z,22.09
2022-09-06T10:32:09.788Z,22.16
2022-09-06T10:34:43.899Z,22.24
2022-09-06T10:37:38.902Z,22.32
2022-09-06T10:40:10.545Z,22.40
2022-09-06T10:42:47.335Z,22.48
2022-09-06T10:45:27.921Z,22.53
2022-09-06T10:47:56.171Z,22.58
2022-09-06T10:50:52.096Z,22.64
2022-09-06T10:53:51.716Z,22.73
2022-09-06T10:56:25.515Z,22.81
2022-09-06T11:02:06.107Z,22.89
2022-09-06T11:07:31.534Z,22.97
2022-09-06T11:10:08.814Z,23.02
2022-09-06T11:13:05.462Z,23.07
2022-09-06T11:15:44.048Z,23.13
2022-09-06T11:18:16.600Z,23.20
2022-09-06T11:20:48.001Z,23.25
2022-09-06T11:23:33.074Z,23.29
2022-09-06T11:26:16.200Z,23.32
2022-09-06T11:28:53.076Z,23.37
2022-09-06T11:34:25.262Z,23.51
2022-09-06T11:37:04.390Z,23.54
2022-09-06T11:42:43.648Z,23.58
2022-09-06T11:45:11.717Z,23.58
2022-09-06T11:47:41.324Z,23.58
2022-09-06T11:50:54.280Z,23.57
2022-09-06T11:53:26.043Z,23.56
2022-09-06T11:56:00.138Z,23.54
2022-09-06T11:58:45.190Z,23.54
2022-09-06T12:01:13.471Z,23.55
2022-09-06T12:06:36.232Z,23.57
2022-09-06T12:09:28.777Z,23.60
2022-09-06T12:11:58.096Z,23.62
2022-09-06T12:14:36.186Z,23.63
2022-09-06T12:17:18.898Z,23.63
2022-09-06T12:19:52.192Z,23.64
2022-09-06T12:22:40.538Z,23.63
2022-09-06T12:25:43.427Z,23.57
2022-09-06T12:28:25.857Z,23.51
2022-09-06T12:30:54.390Z,23.44
2022-09-06T12:33:39.122Z,23.38
2022-09-06T12:36:33.639Z,23.31
2022-09-06T12:39:14.633Z,23.24
2022-09-06T12:41:49.543Z,23.14
2022-09-06T12:44:22.022Z,23.06
2022-09-06T12:46:51.948Z,22.99
2022-09-06T12:49:23.604Z,22.93
2022-09-06T12:51:51.530Z,22.88
2022-09-06T12:54:24.084Z,22.84
2022-09-06T12:56:52.923Z,22.78
2022-09-06T12:59:24.748Z,22.72
2022-09-06T13:02:00.860Z,22.65
2022-09-06T13:04:46.119Z,22.59
2022-09-06T13:07:17.725Z,22.55
2022-09-06T13:09:47.641Z,22.51
2022-09-06T13:12:27.773Z,22.46
2022-09-06T13:14:58.608Z,22.40
2022-09-06T13:17:29.444Z,22.35
2022-09-06T13:19:58.640Z,22.33
2022-09-06T13:22:51.006Z,22.30
2022-09-06T13:25:22.127Z,22.27
2022-09-06T13:27:54.499Z,22.25
2022-09-06T13:30:44.263Z,22.24
2022-09-06T13:33:25.817Z,22.23
2022-09-06T13:36:14.221Z,22.22
2022-09-06T13:38:43.617Z,22.20
2022-09-06T13:41:26.694Z,22.20
2022-09-06T13:44:07.203Z,22.22
2022-09-06T13:46:39.025Z,22.24
2022-09-06T13:49:07.728Z,22.25
2022-09-06T13:51:37.972Z,22.28
2022-09-06T13:54:16.077Z,22.32
2022-09-06T13:56:45.075Z,22.34
2022-09-06T13:59:13.244Z,22.37
2022-09-06T14:01:44.481Z,22.41
2022-09-06T14:04:15.839Z,22.45
2022-09-06T14:06:44.011Z,22.50
2022-09-06T14:09:12.467Z,22.54
2022-09-06T14:11:42.883Z,22.57
2022-09-06T14:14:14.373Z,22.58
2022-09-06T14:16:42.544Z,22.59
2022-09-06T14:19:10.923Z,22.59
2022-09-06T14:21:39.510Z,22.56
2022-09-06T14:24:08.127Z,22.54
2022-09-06T14:26:37.597Z,22.51
2022-09-06T14:29:06.487Z,22.48
2022-09-06T14:31:34.941Z,22.45
2022-09-06T14:34:06.212Z,22.42
2022-09-06T14:36:34.747Z,22.40
2022-09-06T14:39:04.311Z,22.40
2022-09-06T14:41:32.680Z,22.42
2022-09-06T14:44:01.058Z,22.45
2022-09-06T14:46:30.152Z,22.48
2022-09-06T14:49:01.299Z,22.54
2022-09-06T14:51:30.998Z,22.58
2022-09-06T14:54:05.714Z,22.60
2022-09-06T14:56:34.556Z,22.59
2022-09-06T14:59:02.697Z,22.56
2022-09-06T15:01:37.742Z,22.51
2022-09-06T15:04:09.467Z,22.44
2022-09-06T15:06:41.374Z,22.37
2022-09-06T15:09:11.635Z,22.29
2022-09-06T15:11:46.427Z,22.23
2022-09-06T15:14:18.159Z,22.16
2022-09-06T15:16:52.016Z,22.08
2022-09-06T15:19:25.006Z,22.01
2022-09-06T15:21:54.061Z,21.96
2022-09-06T15:24:22.362Z,21.90
2022-09-06T15:26:50.589Z,21.83
2022-09-06T15:29:19.431Z,21.78
2022-09-06T15:31:50.647Z,21.74
2022-09-06T15:34:21.231Z,21.69
2022-09-06T15:36:50.942Z,21.66
2022-09-06T15:39:19.485Z,21.63
2022-09-06T15:41:50.579Z,21.59
2022-09-06T15:44:20.967Z,21.54
2022-09-06T15:46:54.935Z,21.49
2022-09-06T15:49:32.111Z,21.45
2022-09-06T15:52:02.363Z,21.41
2022-09-06T15:54:49.299Z,21.36
2022-09-06T15:57:17.796Z,21.30
2022-09-06T15:59:46.333Z,21.24
2022-09-06T16:02:20.110Z,21.21
2022-09-06T16:04:54.980Z,21.17
2022-09-06T16:07:23.771Z,21.15
2022-09-06T16:09:51.913Z,21.12
2022-09-06T16:12:19.945Z,21.09
2022-09-06T16:14:48.020Z,21.06
2022-09-06T16:17:16.081Z,21.03
2022-09-06T16:19:45.763Z,20.98
2022-09-06T16:22:14.225Z,20.94
2022-09-06T16:24:43.148Z,20.91
2022-09-06T16:27:11.734Z,20.88
2022-09-06T16:29:39.971Z,20.84
2022-09-06T16:32:08.349Z,20.81
2022-09-06T16:34:38.160Z,20.76
2022-09-06T16:37:09.508Z,20.71
2022-09-06T16:39:37.872Z,20.65
2022-09-06T16:42:06.781Z,20.59
2022-09-06T16:44:35.055Z,20.53
2022-09-06T16:47:04.367Z,20.47
2022-09-06T16:49:32.635Z,20.42
2022-09-06T16:52:01.013Z,20.37
2022-09-06T16:54:29.285Z,20.33
2022-09-06T16:56:57.461Z,20.28
2022-09-06T16:59:25.634Z,20.23
2022-09-06T17:01:56.292Z,20.18
2022-09-06T17:04:24.542Z,20.11
2022-09-06T17:06:53.330Z,20.06
2022-09-06T17:09:21.405Z,20.00
2022-09-06T17:11:52.366Z,19.96
2022-09-06T17:14:20.473Z,19.92
2022-09-06T17:17:07.585Z,19.88
2022-09-06T17:19:43.996Z,19.83
2022-09-06T17:22:13.048Z,19.79
2022-09-06T17:24:41.881Z,19.74
2022-09-06T17:27:10.405Z,19.69
2022-09-06T17:29:40.384Z,19.64
2022-09-06T17:32:12.137Z,19.59
2022-09-06T17:34:41.233Z,19.54
2022-09-06T17:37:09.745Z,19.50
2022-09-06T17:39:39.058Z,19.45
2022-09-06T17:42:07.497Z,19.40
2022-09-06T17:44:36.283Z,19.35
2022-09-06T17:47:13.488Z,19.30
2022-09-06T17:49:43.489Z,19.27
2022-09-06T17:52:12.721Z,19.23
2022-09-06T17:54:40.905Z,19.19
2022-09-06T17:57:10.362Z,19.16
2022-09-06T17:59:39.866Z,19.14
2022-09-06T18:02:08.655Z,19.12
2022-09-06T18:04:36.945Z,19.09
2022-09-06T18:07:05.412Z,19.07
2022-09-06T18:09:33.793Z,19.05
2022-09-06T18:12:02.271Z,19.02
2022-09-06T18:14:30.449Z,18.99
2022-09-06T18:16:58.793Z,18.96
2022-09-06T18:19:28.055Z,18.94
2022-09-06T18:21:57.567Z,18.92
2022-09-06T18:24:25.905Z,18.90
2022-09-06T18:26:54.099Z,18.89
2022-09-06T18:29:22.726Z,18.87
2022-09-06T18:31:54.529Z,18.85
2022-09-06T18:34:23.119Z,18.82
2022-09-06T18:36:51.590Z,18.79
2022-09-06T18:39:20.646Z,18.77
2022-09-06T18:42:01.109Z,18.75
2022-09-06T18:44:35.089Z,18.71
2022-09-06T18:47:06.505Z,18.69
2022-09-06T18:49:35.588Z,18.66
2022-09-06T18:52:05.822Z,18.63
2022-09-06T18:54:35.227Z,18.60
2022-09-06T18:57:04.593Z,18.58
2022-09-06T18:59:32.800Z,18.55
2022-09-06T19:02:01.471Z,18.53
2022-09-06T19:04:29.864Z,18.49
2022-09-06T19:07:02.242Z,18.47
2022-09-06T19:09:30.720Z,18.42
2022-09-06T19:11:58.943Z,18.36
2022-09-06T19:14:27.169Z,18.32
2022-09-06T19:16:55.444Z,18.27
2022-09-06T19:19:23.926Z,18.21
2022-09-06T19:21:52.099Z,18.13
2022-09-06T19:24:22.918Z,18.07
2022-09-06T19:26:53.263Z,17.99
2022-09-06T19:29:21.849Z,17.92
2022-09-06T19:31:50.087Z,17.86
2022-09-06T19:34:18.703Z,17.81
2022-09-06T19:36:50.829Z,17.77
2022-09-06T19:39:21.739Z,17.72
2022-09-06T19:41:49.986Z,17.67
2022-09-06T19:44:18.771Z,17.63
2022-09-06T19:46:47.604Z,17.60
2022-09-06T19:49:19.465Z,17.59
2022-09-06T19:51:49.263Z,17.56
2022-09-06T19:54:18.301Z,17.52
2022-09-06T19:56:47.452Z,17.48
2022-09-06T19:59:16.588Z,17.45
2022-09-06T20:01:46.566Z,17.42
2022-09-06T20:04:15.323Z,17.38
2022-09-06T20:06:43.804Z,17.35
2022-09-06T20:09:13.232Z,17.31
2022-09-06T20:11:42.409Z,17.27
2022-09-06T20:14:12.524Z,17.24
2022-09-06T20:16:42.475Z,17.21
2022-09-06T20:19:12.767Z,17.17
2022-09-06T20:21:41.448Z,17.15
2022-09-06T20:24:09.939Z,17.11
2022-09-06T20:26:38.514Z,17.07
2022-09-06T20:29:08.141Z,17.04
2022-09-06T20:31:37.876Z,17.00
2022-09-06T20:34:07.288Z,16.98
2022-09-06T20:36:36.081Z,16.97
2022-09-06T20:39:04.811Z,16.94
2022-09-06T20:41:34.214Z,16.92
2022-09-06T20:44:03.912Z,16.89
2022-09-06T20:46:35.515Z,16.84
2022-09-06T20:49:05.238Z,16.80
2022-09-06T20:51:36.334Z,16.75
2022-09-06T20:54:05.665Z,16.72
2022-09-06T20:56:37.796Z,16.69
2022-09-06T20:59:09.195Z,16.65
2022-09-06T21:01:41.248Z,16.62
2022-09-06T21:04:11.535Z,16.56
2022-09-06T21:06:40.853Z,16.51
2022-09-06T21:09:11.894Z,16.47
2022-09-06T21:11:40.779Z,16.43
2022-09-06T21:14:09.912Z,16.40
2022-09-06T21:16:39.213Z,16.37
2022-09-06T21:19:09.486Z,16.33
2022-09-06T21:21:38.372Z,16.28
2022-09-06T21:24:07.950Z,16.25
2022-09-06T21:26:36.159Z,16.21
2022-09-06T21:29:04.639Z,16.16
2022-09-06T21:31:36.402Z,16.12
2022-09-06T21:34:09.048Z,16.10
2022-09-06T21:36:39.588Z,16.08
2022-09-06T21:39:10.239Z,16.06
2022-09-06T21:41:40.254Z,16.04
2022-09-06T21:44:09.760Z,16.03
2022-09-06T21:46:39.738Z,16.01
2022-09-06T21:49:10.820Z,15.99
2022-09-06T21:51:39.712Z,15.97
2022-09-06T21:54:07.886Z,15.95
2022-09-06T21:56:38.126Z,15.92
2022-09-06T21:59:06.696Z,15.88
2022-09-06T22:01:36.508Z,15.84
2022-09-06T22:04:06.265Z,15.82
2022-09-06T22:06:35.935Z,15.80
2022-09-06T22:09:08.908Z,15.77
2022-09-06T22:11:39.845Z,15.74
2022-09-06T22:14:10.373Z,15.70
2022-09-06T22:16:40.083Z,15.65
2022-09-06T22:19:09.798Z,15.61
2022-09-06T22:21:38.914Z,15.59
2022-09-06T22:24:10.241Z,15.57
2022-09-06T22:26:40.568Z,15.54
2022-09-06T22:29:11.297Z,15.54
2022-09-06T22:31:40.468Z,15.53
2022-09-06T22:34:09.203Z,15.53
2022-09-06T22:36:37.560Z,15.52
2022-09-06T22:39:06.550Z,15.50
2022-09-06T22:41:34.733Z,15.47
2022-09-06T22:44:04.005Z,15.46
2022-09-06T22:46:33.097Z,15.45
2022-09-06T22:49:02.523Z,15.45
2022-09-06T22:51:30.901Z,15.43
2022-09-06T22:53:59.075Z,15.44
2022-09-06T22:56:27.251Z,15.44
2022-09-06T22:58:55.525Z,15.43
2022-09-06T23:01:23.773Z,15.42
2022-09-06T23:03:51.977Z,15.38
2022-09-06T23:06:20.156Z,15.34
2022-09-06T23:08:48.630Z,15.31
2022-09-06T23:11:19.102Z,15.28
2022-09-06T23:13:47.354Z,15.25
2022-09-06T23:16:18.788Z,15.21
2022-09-06T23:18:47.958Z,15.14
2022-09-06T23:21:18.818Z,15.09
2022-09-06T23:23:48.757Z,15.03
2022-09-06T23:26:22.966Z,14.98
2022-09-06T23:28:52.111Z,14.93
2022-09-06T23:31:20.351Z,14.89
2022-09-06T23:33:52.283Z,14.85
2022-09-06T23:36:20.660Z,14.79
2022-09-06T23:38:49.039Z,14.74
2022-09-06T23:41:18.135Z,14.71
2022-09-06T23:43:46.410Z,14.69
2022-09-06T23:46:17.271Z,14.65
2022-09-06T23:48:45.831Z,14.63
2022-09-06T23:51:14.311Z,14.60
2022-09-06T23:53:42.690Z,14.59
2022-09-06T23:56:11.989Z,14.56
2022-09-06T23:58:40.381Z,14.54
